TimeEDT,TemperatureF,Dew PointF,Humidity,Sea Level PressureIn,VisibilityMPH,Wind Direction,Wind SpeedMPH,Gust SpeedMPH,PrecipitationIn,Events,Conditions,WindDirDegrees,DateUTC
12:15 AM,51.8,39.2,62,29.86,10.0,SSW,6.9,-,N/A,,Overcast,210,2012-10-10 04:15:00
12:35 AM,53.6,41.0,62,29.85,10.0,SW,6.9,-,N/A,,Overcast,220,2012-10-10 04:35:00
12:55 AM,53.6,41.0,62,29.86,10.0,WSW,10.4,17.3,N/A,,Overcast,240,2012-10-10 04:55:00
1:15 AM,53.6,41.0,62,29.87,10.0,West,17.3,23.0,N/A,,Overcast,260,2012-10-10 05:15:00
1:35 AM,46.4,42.8,87,29.89,10.0,NW,16.1,27.6,0.01,Rain,Heavy Rain,320,2012-10-10 05:35:00
1:55 AM,44.6,42.8,93,29.90,7.0,NW,8.1,-,0.06,Rain,Heavy Rain,310,2012-10-10 05:55:00
2:15 AM,44.6,44.6,100,29.90,10.0,WNW,9.2,-,0.02,Rain,Rain,300,2012-10-10 06:15:00
2:35 AM,44.6,44.6,100,29.90,7.0,WNW,9.2,-,0.05,Rain,Rain,300,2012-10-10 06:35:00
2:55 AM,44.6,42.8,93,29.90,5.0,NW,9.2,-,0.05,Rain,Rain,310,2012-10-10 06:55:00
3:15 AM,44.6,42.8,93,29.91,10.0,West,9.2,-,N/A,Rain,Light Rain,280,2012-10-10 07:15:00
3:35 AM,44.6,42.8,93,29.91,10.0,West,10.4,17.3,0.01,,Overcast,280,2012-10-10 07:35:00
3:55 AM,42.8,42.8,100,29.90,10.0,West,10.4,-,0.01,,Overcast,280,2012-10-10 07:55:00
4:15 AM,42.8,41.0,93,29.90,10.0,West,6.9,-,N/A,,Overcast,280,2012-10-10 08:15:00
4:35 AM,42.8,41.0,93,29.91,10.0,WNW,10.4,-,N/A,Rain,Light Rain,290,2012-10-10 08:35:00
4:55 AM,41.0,39.2,93,29.92,7.0,WNW,12.7,-,0.01,Rain,Light Rain,290,2012-10-10 08:55:00
5:15 AM,41.0,37.4,87,29.92,10.0,West,10.4,-,N/A,,Overcast,280,2012-10-10 09:15:00
5:35 AM,41.0,37.4,87,29.93,10.0,West,9.2,-,N/A,,Overcast,280,2012-10-10 09:35:00
5:55 AM,41.0,37.4,87,29.93,10.0,West,8.1,-,N/A,,Overcast,270,2012-10-10 09:55:00
6:15 AM,41.0,39.2,93,29.94,10.0,West,11.5,-,N/A,,Overcast,270,2012-10-10 10:15:00
6:35 AM,41.0,39.2,93,29.95,10.0,West,10.4,-,N/A,,Overcast,260,2012-10-10 10:35:00
6:55 AM,41.0,37.4,87,29.95,10.0,West,11.5,17.3,N/A,,Overcast,260,2012-10-10 10:55:00
7:15 AM,39.2,37.4,93,29.96,10.0,West,11.5,-,N/A,,Overcast,260,2012-10-10 11:15:00
7:35 AM,37.4,37.4,100,29.97,10.0,West,11.5,-,N/A,,Scattered Clouds,260,2012-10-10 11:35:00
7:55 AM,37.4,37.4,100,29.97,7.0,WSW,8.1,-,N/A,,Scattered Clouds,250,2012-10-10 11:55:00
8:35 AM,37.4,37.4,100,29.99,5.0,WSW,9.2,-,N/A,,Mostly Cloudy,250,2012-10-10 12:35:00
8:55 AM,39.2,37.4,93,30.00,5.0,West,11.5,-,N/A,,Mostly Cloudy,260,2012-10-10 12:55:00
9:15 AM,41.0,37.4,87,30.00,5.0,West,11.5,-,N/A,,Mostly Cloudy,260,2012-10-10 13:15:00
9:35 AM,41.0,37.4,87,30.01,7.0,West,10.4,-,N/A,,Overcast,260,2012-10-10 13:35:00
9:55 AM,41.0,39.2,93,30.03,7.0,West,12.7,-,N/A,,Overcast,260,2012-10-10 13:55:00
10:15 AM,42.8,37.4,81,30.03,10.0,West,13.8,20.7,N/A,,Overcast,260,2012-10-10 14:15:00
10:35 AM,41.0,37.4,87,30.05,7.0,West,12.7,18.4,N/A,,Overcast,260,2012-10-10 14:35:00
10:55 AM,41.0,37.4,87,30.05,7.0,West,13.8,20.7,N/A,,Overcast,270,2012-10-10 14:55:00
11:15 AM,42.8,37.4,81,30.06,10.0,West,11.5,-,N/A,,Overcast,270,2012-10-10 15:15:00
11:35 AM,42.8,37.4,81,30.06,10.0,West,15.0,-,N/A,,Overcast,260,2012-10-10 15:35:00
12:15 PM,44.6,37.4,76,30.07,10.0,West,13.8,18.4,N/A,,Overcast,270,2012-10-10 16:15:00
12:35 PM,44.6,33.8,66,30.08,10.0,West,16.1,21.9,N/A,,Overcast,270,2012-10-10 16:35:00
12:55 PM,42.8,33.8,70,30.08,10.0,West,12.7,19.6,N/A,,Overcast,270,2012-10-10 16:55:00
1:15 PM,42.8,32.0,66,30.09,10.0,West,15.0,19.6,N/A,,Overcast,280,2012-10-10 17:15:00
1:35 PM,44.6,32.0,61,30.09,10.0,West,16.1,20.7,N/A,,Overcast,270,2012-10-10 17:35:00
1:55 PM,46.4,32.0,57,30.09,10.0,WNW,15.0,-,N/A,,Overcast,290,2012-10-10 17:55:00
2:15 PM,44.6,30.2,57,30.09,10.0,West,19.6,24.2,N/A,,Overcast,270,2012-10-10 18:15:00
2:35 PM,44.6,28.4,53,30.09,10.0,WNW,16.1,25.3,N/A,,Overcast,300,2012-10-10 18:35:00
2:55 PM,44.6,30.2,57,30.09,10.0,WNW,17.3,21.9,N/A,,Overcast,290,2012-10-10 18:55:00
3:15 PM,48.2,30.2,50,30.09,10.0,WNW,19.6,-,N/A,,Mostly Cloudy,290,2012-10-10 19:15:00
3:35 PM,44.6,28.4,53,30.10,10.0,WNW,18.4,23.0,N/A,,Mostly Cloudy,300,2012-10-10 19:35:00
3:55 PM,46.4,30.2,53,30.11,10.0,WNW,12.7,20.7,N/A,,Scattered Clouds,290,2012-10-10 19:55:00
4:15 PM,48.2,28.4,46,30.11,10.0,WNW,17.3,26.5,N/A,,Scattered Clouds,300,2012-10-10 20:15:00
4:35 PM,48.2,28.4,46,30.11,10.0,NW,17.3,24.2,N/A,,Scattered Clouds,320,2012-10-10 20:35:00
4:55 PM,48.2,26.6,43,30.11,10.0,WNW,13.8,21.9,N/A,,Scattered Clouds,300,2012-10-10 20:55:00
5:15 PM,48.2,26.6,43,30.11,10.0,WNW,18.4,25.3,N/A,,Clear,300,2012-10-10 21:15:00
5:35 PM,48.2,26.6,43,30.11,10.0,WNW,16.1,20.7,N/A,,Clear,300,2012-10-10 21:35:00
5:55 PM,46.4,26.6,46,30.12,10.0,NW,16.1,21.9,N/A,,Scattered Clouds,310,2012-10-10 21:55:00
6:15 PM,46.4,26.6,46,30.13,10.0,WNW,13.8,-,N/A,,Clear,300,2012-10-10 22:15:00
6:35 PM,46.4,26.6,46,30.13,10.0,WNW,12.7,16.1,N/A,,Scattered Clouds,290,2012-10-10 22:35:00
6:55 PM,46.4,26.6,46,30.14,10.0,WNW,12.7,-,N/A,,Scattered Clouds,300,2012-10-10 22:55:00
7:15 PM,42.8,26.6,53,30.15,10.0,WNW,9.2,-,N/A,,Scattered Clouds,290,2012-10-10 23:15:00
7:35 PM,41.0,26.6,57,30.15,10.0,West,8.1,-,N/A,,Clear,280,2012-10-10 23:35:00
7:55 PM,39.2,26.6,61,30.16,10.0,WNW,6.9,-,N/A,,Clear,300,2012-10-10 23:55:00
8:15 PM,35.6,28.4,75,30.17,10.0,West,5.8,-,N/A,,Clear,280,2012-10-11 00:15:00
8:35 PM,39.2,28.4,65,30.17,10.0,Calm,Calm,-,N/A,,Clear,0,2012-10-11 00:35:00
8:55 PM,37.4,30.2,75,30.17,10.0,Calm,Calm,-,N/A,,Clear,0,2012-10-11 00:55:00
9:15 PM,37.4,28.4,70,30.18,10.0,Calm,Calm,-,N/A,,Clear,0,2012-10-11 01:15:00
9:35 PM,35.6,30.2,81,30.18,10.0,Calm,Calm,-,N/A,,Clear,0,2012-10-11 01:35:00
9:55 PM,35.6,30.2,81,30.19,10.0,Calm,Calm,-,N/A,,Clear,0,2012-10-11 01:55:00
10:15 PM,37.4,30.2,75,30.20,10.0,WSW,3.5,-,N/A,,Scattered Clouds,240,2012-10-11 02:15:00
10:35 PM,35.6,30.2,81,30.20,10.0,Calm,Calm,-,N/A,,Scattered Clouds,0,2012-10-11 02:35:00
10:55 PM,35.6,30.2,81,30.20,10.0,Calm,Calm,-,N/A,,Clear,0,2012-10-11 02:55:00
11:15 PM,33.8,28.4,81,30.20,10.0,Calm,Calm,-,N/A,,Clear,0,2012-10-11 03:15:00
11:35 PM,35.6,30.2,81,30.20,10.0,Calm,Calm,-,N/A,,Clear,0,2012-10-11 03:35:00
11:55 PM,33.8,30.2,87,30.20,10.0,Calm,Calm,-,N/A,,Clear,0,2012-10-11 03:55:00